Nakkehoved, Denmark

9:58 PM CET on March 27, 2015 (GMT +0100)
IHOVEDST4 | | Change Station
CLOSE
Current Station
Personal Weather Station
Location: Gilleleje, HOVEDSTADEN
Elevation: 20 ft
Nearby Weather Stations

Elev 20 ft 56.12 °N, 12.31 °E | Updated 7 minutes ago

Overcast
Overcast
40.6 °F
Feels Like 36 °F
N
6.0
Wind Variable Wind from West
Gusts 8.0 mph

Today
High -- | Low -- °F
--% Chance of Precip.
Yesterday
High -- | Low -- °F
Precip. -- in
5:55 AM 6:37 PM
First Quarter, 55% visible
Pressure 29.95 in
Visibility 1.2 miles
Clouds Few 8400 ft
Overcast 11000 ft
Windchill 36 °F
Dew Point 39 °F
Humidity 95%
Rainfall 0.00 in
Snow Depth Not available.
UV 0 out of 12
Pollen Not available.
Air Quality Not available.
Flu Activity Not available.
METAR ESTA 272050Z 27005KT 1900 BR FEW084 OVC110 03/03 Q1014

More Conditions Fewer Conditions

Pressure 29.95 in
Visibility 1.2 miles
Clouds Few 8400 ft
Overcast 11000 ft
Windchill 36 °F
Dew Point 39 °F
Humidity 95%
Rainfall 0.00 in
Snow Depth Not available.
UV 0 out of 12
Pollen Not available.
Air Quality Not available.
Flu Activity Not available.
METAR ESTA 272050Z 27005KT 1900 BR FEW084 OVC110 03/03 Q1014

More Conditions Fewer Conditions

10-Day Weather Forecast

Almanac

Astronomy

Mar. 27, 2015 Rise Set
Actual Time
Civil Twilight
Nautical Twilight
Astronomical Twilight
Moon
Length of Visible Light
Length of Day
Tomorrow will be .
, % of the Moon is Illuminated

Today's Extremes

Country Highs Country Lows

Community

WunderPhotos

Upload Photos

1,808,822 photos uploaded!

WunderBlogs® & News

Nearby

Air Quality

  Air Quality AQ Index Pollutant
Not available.

Snow Depth

Station Depth Elevation

Earthquake Activity

City Distance Mag. Time & Date
Minimum magnitude displayed is 2.5.

Coastal Water Temperatures

Place Temperature

Stations

Nearby Weather Stations

Station Location Temp. Windchill Dew Point Humidity Wind Precip. Elev Updated Type